Time;durP1;ratioP1;P1;durP2;ratioP2;P2;SDS_P1;SDS_P2;PMS_P1;PMS_P2;Temp;Humidity;BMP_temperature;BMP_pressure;BME280_temperature;BME280_humidity;BME280_pressure;Samples;Min_cycle;Max_cycle;Signal;HPM_P1;HPM_P2
2021/03/12 00:04:02;;;;;;;2.13;0.50;;;;;;;8.52;56.37;98560.50;10505246;28;20092;-78
2021/03/12 00:09:05;;;;;;;1.90;0.50;;;;;;;8.39;56.39;98577.72;10506349;28;20048;-78
2021/03/12 00:14:15;;;;;;;1.27;0.60;;;;;;;8.33;56.28;98598.94;10491543;28;20094;-77
2021/03/12 00:19:18;;;;;;;2.90;0.50;;;;;;;8.26;56.73;98637.59;10515072;28;20044;-78
2021/03/12 00:24:19;;;;;;;2.42;0.73;;;;;;;8.21;57.08;98657.91;10498019;28;20048;-79
2021/03/12 00:29:22;;;;;;;2.80;1.00;;;;;;;7.61;61.29;98687.53;10498932;28;20048;-78
2021/03/12 00:34:24;;;;;;;10.07;1.58;;;;;;;7.32;63.07;98711.34;10517371;28;20047;-78
2021/03/12 00:39:28;;;;;;;2.78;1.30;;;;;;;6.94;64.52;98715.41;10516514;28;20052;-77
2021/03/12 00:44:42;;;;;;;2.65;1.13;;;;;;;7.13;64.51;98706.88;10491771;28;20068;-78
2021/03/12 00:49:44;;;;;;;2.42;1.27;;;;;;;7.24;63.66;98716.00;10494749;28;20048;-77
2021/03/12 00:54:46;;;;;;;4.05;2.22;;;;;;;7.16;63.77;98712.84;10511298;28;20033;-78
2021/03/12 00:59:57;;;;;;;2.17;1.65;;;;;;;7.26;63.18;98698.50;10494571;28;20098;-78
2021/03/12 01:04:58;;;;;;;3.45;1.00;;;;;;;7.28;62.46;98681.00;10477620;28;20131;-77
2021/03/12 01:09:59;;;;;;;2.72;0.73;;;;;;;7.29;62.04;98685.31;10492884;28;20410;-78
2021/03/12 01:15:09;;;;;;;;;;;;;;;7.13;61.77;98676.38;10496465;28;20045;-78
2021/03/12 01:20:21;;;;;;;2.05;0.68;;;;;;;7.25;61.12;98670.66;10528907;28;19942;-76
2021/03/12 01:25:27;;;;;;;2.50;0.88;;;;;;;7.10;60.31;98679.13;10499764;28;20443;-77
2021/03/12 01:30:38;;;;;;;2.35;0.52;;;;;;;7.18;60.08;98671.81;10502375;28;20055;-77
2021/03/12 01:35:57;;;;;;;2.13;0.50;;;;;;;7.39;58.87;98677.94;10519812;28;20067;-78
2021/03/12 01:40:59;;;;;;;2.30;0.50;;;;;;;7.38;58.43;98683.25;10496047;28;20045;-78
2021/03/12 01:46:06;;;;;;;2.65;0.47;;;;;;;7.25;58.87;98686.34;10511663;28;20102;-78
2021/03/12 01:51:08;;;;;;;2.42;0.70;;;;;;;7.32;58.66;98693.03;10492675;28;20056;-77
2021/03/12 01:56:10;;;;;;;1.83;1.27;;;;;;;6.99;62.09;98718.69;10492896;28;20048;-77
2021/03/12 02:01:25;;;;;;;1.95;1.50;;;;;;;6.27;66.56;98721.34;10491686;22;20509;-79
2021/03/12 02:06:33;;;;;;;2.03;1.63;;;;;;;5.86;68.19;98709.72;10478531;28;20051;-79
2021/03/12 02:11:38;;;;;;;2.30;1.95;;;;;;;5.73;68.71;98704.06;10472679;28;20045;-80
2021/03/12 02:16:50;;;;;;;1.73;1.63;;;;;;;5.75;68.32;98686.59;10468308;28;20498;-80
2021/03/12 02:21:55;;;;;;;2.30;1.58;;;;;;;5.84;67.27;98675.00;10465271;28;20162;-80
2021/03/12 02:27:02;;;;;;;3.92;1.73;;;;;;;5.87;66.32;98680.13;10463631;28;20049;-80
2021/03/12 02:32:09;;;;;;;2.30;1.20;;;;;;;6.16;64.27;98680.91;10468311;28;20047;-79
2021/03/12 02:37:13;;;;;;;2.17;0.88;;;;;;;6.32;62.53;98685.50;10464256;28;20099;-78
2021/03/12 02:42:20;;;;;;;2.50;0.70;;;;;;;6.49;60.69;98671.84;10462032;28;20045;-80
2021/03/12 02:47:27;;;;;;;4.03;0.73;;;;;;;6.65;60.01;98672.13;10468461;28;20131;-79
2021/03/12 02:52:36;;;;;;;1.02;0.50;;;;;;;6.76;59.04;98677.78;10465265;28;20414;-80
2021/03/12 02:57:40;;;;;;;1.58;0.50;;;;;;;6.80;58.59;98682.00;10461555;28;20073;-79
2021/03/12 03:02:42;;;;;;;2.65;0.60;;;;;;;6.89;58.03;98686.00;10467439;28;20044;-79
2021/03/12 03:07:58;;;;;;;2.75;0.80;;;;;;;7.05;57.43;98689.75;10463564;28;20542;-79
2021/03/12 03:13:00;;;;;;;4.90;1.13;;;;;;;6.95;58.39;98713.66;10452798;28;20045;-78
2021/03/12 03:18:03;;;;;;;3.13;0.60;;;;;;;6.93;58.58;98716.34;10452730;28;20048;-78
2021/03/12 03:23:10;;;;;;;2.42;0.60;;;;;;;6.90;59.09;98728.66;10458764;28;20041;-78
2021/03/12 03:28:13;;;;;;;4.10;0.70;;;;;;;6.97;58.76;98737.97;10448548;28;20041;-78
2021/03/12 03:33:15;;;;;;;2.50;0.60;;;;;;;6.85;60.04;98734.06;10475047;28;20498;-79
2021/03/12 03:38:17;;;;;;;1.48;0.60;;;;;;;6.90;59.56;98746.94;10446908;28;20506;-78
2021/03/12 03:43:30;;;;;;;2.88;0.68;;;;;;;6.90;59.91;98763.47;10432763;28;20045;-79
2021/03/12 03:48:34;;;;;;;1.75;0.70;;;;;;;6.82;60.00;98761.16;10457866;28;20049;-79
2021/03/12 03:53:39;;;;;;;2.17;0.57;;;;;;;6.89;59.99;98772.22;10466415;28;20057;-78
2021/03/12 03:58:41;;;;;;;1.08;0.30;;;;;;;6.80;59.82;98770.78;10464581;28;20041;-77
2021/03/12 04:03:44;;;;;;;2.33;0.60;;;;;;;6.79;59.36;98779.53;10439643;28;20045;-79
2021/03/12 04:08:47;;;;;;;1.35;0.40;;;;;;;6.70;59.64;98792.94;10447042;28;20049;-78
2021/03/12 04:13:49;;;;;;;2.53;0.38;;;;;;;6.76;59.44;98797.94;10472828;28;20033;-79
2021/03/12 04:18:55;;;;;;;1.90;0.50;;;;;;;6.71;59.43;98801.63;10461000;28;20040;-78
2021/03/12 04:23:57;;;;;;;1.58;0.45;;;;;;;6.63;59.67;98816.69;10444658;28;20052;-78
2021/03/12 04:28:59;;;;;;;1.75;0.50;;;;;;;6.42;60.42;98823.50;10447933;28;20105;-78
2021/03/12 04:34:03;;;;;;;1.95;0.40;;;;;;;6.43;60.48;98841.75;10445940;28;20044;-79
2021/03/12 04:39:05;;;;;;;1.50;0.50;;;;;;;6.33;61.10;98832.53;10447701;28;20087;-78
2021/03/12 04:44:09;;;;;;;2.42;0.50;;;;;;;6.20;61.24;98829.47;10453134;28;20037;-78
2021/03/12 04:49:12;;;;;;;2.97;0.70;;;;;;;5.86;62.10;98845.31;10447031;28;20071;-78
2021/03/12 04:54:16;;;;;;;1.83;0.57;;;;;;;5.97;61.32;98852.84;10442134;28;20049;-77
2021/03/12 04:59:19;;;;;;;2.08;0.50;;;;;;;6.11;60.15;98881.09;10449121;28;20110;-78
2021/03/12 05:04:23;;;;;;;2.95;0.55;;;;;;;6.14;60.12;98870.56;10434729;28;20045;-78
2021/03/12 05:09:26;;;;;;;2.67;0.82;;;;;;;6.12;60.55;98893.25;10446602;28;20139;-77
2021/03/12 05:14:28;;;;;;;0.95;0.80;;;;;;;6.24;59.90;98898.06;10442173;28;20120;-78
2021/03/12 05:19:29;;;;;;;1.67;0.50;;;;;;;6.27;60.10;98911.00;10445148;28;20072;-77
2021/03/12 05:24:33;;;;;;;1.15;0.40;;;;;;;6.31;60.15;98931.75;10444909;28;20041;-77
2021/03/12 05:29:35;;;;;;;1.90;0.50;;;;;;;6.29;60.49;98927.50;10444362;28;20526;-77
2021/03/12 05:34:38;;;;;;;1.02;0.30;;;;;;;6.16;60.62;98931.38;10442584;28;20108;-78
2021/03/12 05:39:42;;;;;;;0.60;0.40;;;;;;;6.24;59.73;98940.69;10451147;28;20041;-77
2021/03/12 05:44:47;;;;;;;1.75;0.43;;;;;;;6.07;60.35;98956.88;10458208;28;20095;-77
2021/03/12 05:49:54;;;;;;;1.52;0.55;;;;;;;6.01;60.61;98964.84;10456490;28;20045;-77
2021/03/12 05:54:55;;;;;;;1.00;0.50;;;;;;;5.96;60.51;98984.16;10464693;28;20045;-78
2021/03/12 05:59:58;;;;;;;1.20;0.40;;;;;;;5.90;60.98;98992.16;10481184;28;20045;-78
2021/03/12 06:05:00;;;;;;;1.67;0.40;;;;;;;6.00;60.92;99004.88;10476155;28;20117;-78
2021/03/12 06:10:03;;;;;;;2.15;0.60;;;;;;;5.87;62.54;99024.38;10461757;28;20057;-78
2021/03/12 06:15:06;;;;;;;1.45;0.50;;;;;;;5.97;63.38;99031.06;10449642;28;20047;-77
2021/03/12 06:20:14;;;;;;;0.75;0.40;;;;;;;5.78;63.92;99029.84;10466898;28;20045;-80
2021/03/12 06:25:25;;;;;;;0.52;0.30;;;;;;;5.85;62.47;99035.78;10448408;28;20229;-77
2021/03/12 06:30:49;;;;;;;1.27;0.50;;;;;;;5.87;61.59;99041.78;10446829;28;20060;-77
2021/03/12 06:36:25;;;;;;;0.60;0.30;;;;;;;5.93;61.32;99058.16;10444979;28;20075;-79
2021/03/12 06:41:45;;;;;;;1.42;0.40;;;;;;;5.94;61.37;99072.06;10447622;28;20521;-78
2021/03/12 06:46:52;;;;;;;0.50;0.30;;;;;;;6.17;61.24;99074.84;10451912;28;20045;-78
2021/03/12 06:52:01;;;;;;;2.05;0.70;;;;;;;6.42;60.31;99089.75;10468846;28;20443;-77
2021/03/12 06:57:19;;;;;;;2.03;0.82;;;;;;;6.40;59.71;99102.88;10447059;28;20045;-79
2021/03/12 07:02:37;;;;;;;2.25;0.50;;;;;;;6.44;59.70;99109.72;10467586;28;20041;-78
2021/03/12 07:07:45;;;;;;;2.67;0.55;;;;;;;6.44;59.60;99121.91;10469270;28;20406;-79
2021/03/12 07:13:00;;;;;;;1.08;0.50;;;;;;;6.37;58.67;99125.59;10456321;28;20037;-78
2021/03/12 07:18:06;;;;;;;1.45;0.45;;;;;;;6.70;58.03;99152.47;10459626;28;20056;-78
2021/03/12 07:23:12;;;;;;;1.50;0.40;;;;;;;6.64;57.61;99163.97;10454100;28;20101;-81
2021/03/12 07:28:22;;;;;;;1.23;0.40;;;;;;;6.42;58.21;99178.50;10462747;28;20131;-80
2021/03/12 07:33:51;;;;;;;2.85;0.55;;;;;;;6.51;56.90;99183.50;10481808;28;20049;-81
2021/03/12 07:38:57;;;;;;;3.22;0.73;;;;;;;6.55;57.17;99192.94;10466136;28;20045;-81
2021/03/12 07:44:01;;;;;;;1.63;0.60;;;;;;;6.62;57.00;99206.69;10464627;28;20045;-80
2021/03/12 07:49:27;;;;;;;1.92;0.57;;;;;;;6.77;56.62;99214.06;10469222;28;20088;-83
2021/03/12 07:54:37;;;;;;;1.55;0.63;;;;;;;6.81;57.71;99226.13;10470511;28;20112;-82
2021/03/12 07:59:45;;;;;;;3.33;0.70;;;;;;;6.72;57.66;99239.47;10480609;23;20080;-66
2021/03/12 08:05:32;;;;;;;1.25;0.50;;;;;;;6.86;56.42;99250.34;10492026;28;20048;-66
2021/03/12 08:10:35;;;;;;;7.93;0.68;;;;;;;6.88;56.82;99251.19;10490467;28;20417;-66
2021/03/12 08:15:41;;;;;;;3.72;0.80;;;;;;;6.85;56.96;99272.16;10487654;28;20432;-66
2021/03/12 08:20:54;;;;;;;1.95;0.75;;;;;;;6.83;57.18;99281.81;10503650;28;20131;-67
2021/03/12 08:26:07;;;;;;;2.38;0.70;;;;;;;7.00;55.78;99266.50;10499176;28;20076;-69
2021/03/12 08:31:41;;;;;;;1.73;0.73;;;;;;;7.05;55.65;99285.50;10460113;28;20052;-67
2021/03/12 08:37:26;;;;;;;3.08;0.77;;;;;;;7.50;54.26;99278.94;10502170;28;20045;-66
2021/03/12 08:43:08;;;;;;;3.87;1.10;;;;;;;7.41;54.35;99282.69;10485114;28;20405;-67
2021/03/12 08:48:34;;;;;;;2.22;0.63;;;;;;;7.52;54.65;99285.81;10471879;28;20048;-67
2021/03/12 08:53:40;;;;;;;2.97;0.75;;;;;;;7.78;53.66;99281.53;10483095;28;20040;-68
2021/03/12 08:58:44;;;;;;;5.10;3.45;;;;;;;8.29;52.08;99286.78;10482765;28;20071;-66
2021/03/12 09:04:02;;;;;;;2.28;0.60;;;;;;;8.31;52.33;99277.09;10467860;28;20536;-66
2021/03/12 09:09:19;;;;;;;2.80;0.70;;;;;;;8.14;52.72;99294.28;10483447;28;20079;-68
2021/03/12 09:14:43;;;;;;;2.13;0.50;;;;;;;8.21;51.71;99296.66;10485702;28;20041;-67
2021/03/12 09:19:45;;;;;;;1.13;0.70;;;;;;;8.17;52.26;99305.53;10466744;28;20056;-68
2021/03/12 09:24:56;;;;;;;1.85;0.70;;;;;;;8.17;52.88;99312.53;10460512;28;20051;-67
2021/03/12 09:30:28;;;;;;;1.95;0.68;;;;;;;7.71;53.32;99314.03;10472783;28;20041;-68
2021/03/12 09:35:41;;;;;;;1.40;0.85;;;;;;;7.45;54.43;99328.75;10464663;28;20045;-67
2021/03/12 09:40:44;;;;;;;3.88;0.70;;;;;;;7.52;54.35;99335.50;10481669;28;20051;-68
2021/03/12 09:45:55;;;;;;;1.85;0.85;;;;;;;7.80;54.14;99337.28;10508910;28;20032;-67
2021/03/12 09:51:06;;;;;;;3.92;1.13;;;;;;;7.79;53.25;99323.34;10480675;28;20475;-69
2021/03/12 09:56:12;;;;;;;3.45;0.90;;;;;;;8.12;52.49;99311.84;10449397;28;20041;-68
2021/03/12 10:01:22;;;;;;;2.83;0.80;;;;;;;8.98;50.58;99313.16;10448260;28;20068;-67
2021/03/12 10:06:34;;;;;;;2.88;1.02;;;;;;;9.33;49.40;99306.59;10447959;28;20140;-68
2021/03/12 10:11:49;;;;;;;2.22;0.70;;;;;;;9.40;47.28;99315.09;10446442;28;20068;-67
2021/03/12 10:17:09;;;;;;;2.63;1.00;;;;;;;8.75;49.20;99313.16;10446535;28;20087;-67
2021/03/12 10:22:43;;;;;;;2.00;0.60;;;;;;;8.83;48.51;99308.50;10464216;28;20139;-67
2021/03/12 10:28:07;;;;;;;2.90;0.85;;;;;;;9.52;46.32;99319.03;10445256;28;20041;-68
2021/03/12 10:33:17;;;;;;;2.35;0.85;;;;;;;9.47;46.72;99297.34;10464203;28;20045;-68
2021/03/12 10:38:27;;;;;;;2.03;0.60;;;;;;;9.77;46.14;99306.63;10495603;28;20040;-66
2021/03/12 10:43:33;;;;;;;1.85;0.77;;;;;;;9.45;46.01;99307.06;10487639;28;20044;-68
2021/03/12 10:48:42;;;;;;;4.18;0.80;;;;;;;9.33;46.85;99300.50;10487324;28;20045;-68
2021/03/12 10:53:53;;;;;;;2.08;0.50;;;;;;;9.52;46.04;99317.28;10504386;28;20390;-68
2021/03/12 10:58:56;;;;;;;3.13;0.90;;;;;;;9.78;45.30;99318.00;10505227;28;20036;-68
2021/03/12 11:03:59;;;;;;;2.03;0.70;;;;;;;9.84;44.94;99291.50;10504726;28;20042;-68
2021/03/12 11:09:09;;;;;;;6.32;1.15;;;;;;;10.24;44.73;99292.50;10505022;28;20082;-68
2021/03/12 11:14:11;;;;;;;2.38;0.80;;;;;;;10.21;43.79;99295.22;10506515;28;20383;-68
2021/03/12 11:19:12;;;;;;;3.50;0.90;;;;;;;9.98;44.55;99294.41;10503671;28;20079;-68
2021/03/12 11:24:14;;;;;;;3.92;0.80;;;;;;;10.68;43.70;99274.00;10504830;28;20557;-67
2021/03/12 11:29:15;;;;;;;3.55;0.85;;;;;;;10.83;43.62;99282.03;10504602;28;20041;-69
2021/03/12 11:34:17;;;;;;;2.97;0.85;;;;;;;11.01;43.01;99272.44;10503547;28;20086;-68
2021/03/12 11:39:18;;;;;;;4.07;1.08;;;;;;;10.95;43.39;99292.94;10502442;28;20045;-69
2021/03/12 11:44:19;;;;;;;1.55;0.63;;;;;;;10.44;43.92;99292.50;10503730;28;20040;-68
2021/03/12 11:49:21;;;;;;;1.98;0.70;;;;;;;10.06;43.43;99292.34;10504331;28;20064;-68
2021/03/12 11:54:22;;;;;;;3.30;0.60;;;;;;;10.43;42.88;99279.44;10502899;28;20505;-67
2021/03/12 11:59:23;;;;;;;2.65;0.75;;;;;;;10.28;42.71;99283.59;10501998;28;20501;-70
2021/03/12 12:04:25;;;;;;;2.03;0.52;;;;;;;9.89;43.82;99289.56;10502396;28;20040;-67
2021/03/12 12:09:26;;;;;;;1.40;0.50;;;;;;;9.72;41.76;99300.72;10502330;28;20045;-68
2021/03/12 12:14:28;;;;;;;2.28;0.60;;;;;;;9.52;41.82;99288.41;10484698;28;20415;-69
2021/03/12 12:19:30;;;;;;;1.33;0.57;;;;;;;9.35;43.55;99281.19;10484570;28;20477;-69
2021/03/12 12:24:31;;;;;;;3.30;0.80;;;;;;;9.68;43.59;99293.03;10502489;28;20123;-68
2021/03/12 12:29:33;;;;;;;1.55;0.77;;;;;;;9.72;43.89;99287.59;10502792;28;20044;-69
2021/03/12 12:34:36;;;;;;;1.38;0.77;;;;;;;9.91;43.12;99284.22;10502158;28;20044;-68
2021/03/12 12:39:37;;;;;;;2.85;0.70;;;;;;;9.77;43.91;99283.00;10501548;28;20555;-68
2021/03/12 12:44:38;;;;;;;1.45;0.68;;;;;;;9.78;43.07;99274.25;10502222;28;20044;-68
2021/03/12 12:49:39;;;;;;;2.47;0.63;;;;;;;9.50;44.11;99269.22;10501729;28;20037;-68
2021/03/12 12:54:41;;;;;;;2.17;0.70;;;;;;;9.65;43.13;99278.28;10502411;28;20064;-69
2021/03/12 12:59:42;;;;;;;2.42;0.63;;;;;;;10.02;43.18;99271.53;10484688;28;20151;-69
2021/03/12 13:04:44;;;;;;;1.98;0.73;;;;;;;9.98;43.00;99255.03;10501588;28;20048;-69
2021/03/12 13:09:46;;;;;;;2.67;0.93;;;;;;;10.15;42.63;99249.09;10502066;28;20126;-70
2021/03/12 13:14:47;;;;;;;2.88;0.70;;;;;;;9.98;42.13;99248.94;10484052;28;20041;-70
2021/03/12 13:19:52;;;;;;;1.83;0.50;;;;;;;10.00;41.66;99245.31;10503581;28;20041;-68
2021/03/12 13:24:55;;;;;;;3.30;0.73;;;;;;;9.68;43.09;99246.66;10502480;28;20036;-69
2021/03/12 13:29:56;;;;;;;4.18;0.98;;;;;;;9.68;43.07;99237.94;10501985;28;20040;-69
2021/03/12 13:34:57;;;;;;;2.15;0.60;;;;;;;9.72;42.72;99253.47;10501543;28;20044;-68
2021/03/12 13:39:59;;;;;;;3.25;0.60;;;;;;;9.67;43.47;99246.72;10502622;28;20119;-69
2021/03/12 13:45:01;;;;;;;2.63;0.82;;;;;;;9.64;42.31;99260.81;10483374;28;20040;-67
2021/03/12 13:50:05;;;;;;;3.28;0.80;;;;;;;9.74;41.87;99263.91;10501902;28;20056;-69
2021/03/12 13:55:07;;;;;;;2.60;0.60;;;;;;;9.83;43.13;99258.31;10502257;28;20047;-70
2021/03/12 14:00:11;;;;;;;1.45;0.70;;;;;;;9.79;42.11;99254.94;10483707;28;20041;-67
2021/03/12 14:05:14;;;;;;;5.25;0.90;;;;;;;9.46;42.55;99244.03;10506208;28;20561;-68
2021/03/12 14:10:15;;;;;;;4.07;0.70;;;;;;;9.48;43.54;99252.72;10490307;28;20059;-69
2021/03/12 14:15:17;;;;;;;4.35;0.93;;;;;;;9.55;43.65;99253.31;10507876;28;20039;-67
2021/03/12 14:20:18;;;;;;;1.73;0.68;;;;;;;9.93;43.07;99243.88;10507719;28;20051;-67
2021/03/12 14:25:36;;;;;;;2.67;0.70;;;;;;;10.06;42.77;99245.06;10492626;28;20041;-67
2021/03/12 14:30:56;;;;;;;2.58;0.77;;;;;;;10.03;42.59;99239.09;10508099;28;20040;-68
2021/03/12 14:35:57;;;;;;;2.15;0.70;;;;;;;10.16;42.42;99237.66;10507766;28;20493;-67
2021/03/12 14:40:59;;;;;;;2.35;0.68;;;;;;;10.10;42.67;99245.81;10507059;28;20129;-68
2021/03/12 14:46:00;;;;;;;2.45;0.70;;;;;;;10.14;41.08;99236.88;10506527;28;20071;-68
2021/03/12 14:51:28;;;;;;;2.83;0.90;;;;;;;10.17;40.85;99228.84;10505471;28;20068;-67
2021/03/12 14:56:29;;;;;;;2.47;0.68;;;;;;;10.13;40.72;99235.16;10504510;28;20098;-68
2021/03/12 15:01:32;;;;;;;2.70;0.90;;;;;;;10.25;41.43;99232.03;10487922;28;20131;-68
2021/03/12 15:06:34;;;;;;;4.00;0.90;;;;;;;10.05;40.11;99229.41;10505899;28;20036;-68
2021/03/12 15:11:37;;;;;;;1.50;0.50;;;;;;;9.98;41.09;99222.69;10487000;28;20048;-67
2021/03/12 15:16:40;;;;;;;2.63;0.60;;;;;;;10.02;40.55;99211.97;10486348;28;20051;-68
2021/03/12 15:21:45;;;;;;;1.92;0.50;;;;;;;10.14;40.05;99205.38;10485942;28;20524;-67
2021/03/12 15:26:47;;;;;;;2.22;0.70;;;;;;;10.12;40.28;99209.81;10484481;28;20041;-67
2021/03/12 15:31:48;;;;;;;2.03;0.52;;;;;;;9.96;40.57;99214.00;10486206;28;20079;-66
2021/03/12 15:36:51;;;;;;;2.70;1.00;;;;;;;9.74;40.96;99203.53;10488060;28;20132;-67
2021/03/12 15:42:11;;;;;;;2.33;0.80;;;;;;;9.68;40.84;99183.66;10487946;28;20056;-67
2021/03/12 15:47:13;;;;;;;2.22;0.70;;;;;;;9.68;40.83;99182.81;10487718;28;20052;-67
2021/03/12 15:52:15;;;;;;;1.10;0.65;;;;;;;9.51;41.73;99173.88;10477434;28;20124;-69
2021/03/12 15:57:18;;;;;;;2.45;0.95;;;;;;;9.50;42.08;99169.53;10446645;28;20045;-67
2021/03/12 16:02:28;;;;;;;4.60;1.25;;;;;;;9.47;42.03;99164.41;10444957;28;20044;-68
2021/03/12 16:07:32;;;;;;;2.70;0.68;;;;;;;9.47;41.49;99148.66;10443522;28;20083;-67
2021/03/12 16:12:33;;;;;;;3.30;1.00;;;;;;;9.28;41.82;99139.88;10443187;28;20055;-67
2021/03/12 16:17:42;;;;;;;4.47;0.82;;;;;;;9.22;41.52;99145.38;10461744;28;20084;-68
2021/03/12 16:23:03;;;;;;;3.42;0.75;;;;;;;9.20;42.13;99134.91;10443795;28;20045;-68
2021/03/12 16:28:12;;;;;;;5.63;0.70;;;;;;;9.06;42.68;99137.25;10443381;28;20128;-68
2021/03/12 16:33:17;;;;;;;2.92;1.10;;;;;;;9.11;41.63;99143.16;10442299;28;20040;-66
2021/03/12 16:38:38;;;;;;;1.95;0.70;;;;;;;8.90;42.46;99141.38;10460157;28;20136;-67
2021/03/12 16:43:39;;;;;;;1.77;0.60;;;;;;;8.71;43.30;99134.25;10461677;28;20407;-67
2021/03/12 16:48:41;;;;;;;2.55;0.73;;;;;;;8.83;42.27;99146.03;10442870;28;20099;-67
2021/03/12 16:53:44;;;;;;;1.42;0.75;;;;;;;8.69;43.11;99130.84;10461084;28;20227;-67
2021/03/12 16:58:48;;;;;;;1.60;0.70;;;;;;;8.73;42.35;99139.44;10462061;28;20453;-67
2021/03/12 17:03:49;;;;;;;2.75;0.80;;;;;;;8.65;43.49;99134.50;10461338;28;20037;-66
2021/03/12 17:08:54;;;;;;;2.40;0.82;;;;;;;8.54;42.73;99128.78;10442447;28;20059;-67
2021/03/12 17:13:56;;;;;;;2.13;0.90;;;;;;;8.45;42.55;99137.00;10443154;28;20049;-66
2021/03/12 17:18:57;;;;;;;2.05;0.80;;;;;;;8.30;42.42;99136.63;10460006;28;20045;-67
2021/03/12 17:23:59;;;;;;;1.02;0.50;;;;;;;8.22;42.53;99138.66;10442830;28;20077;-67
2021/03/12 17:29:01;;;;;;;2.38;0.77;;;;;;;8.25;41.84;99137.72;10461203;28;20465;-67
2021/03/12 17:34:02;;;;;;;2.35;0.77;;;;;;;8.00;42.83;99141.19;10442940;28;20047;-66
2021/03/12 17:39:04;;;;;;;1.58;0.65;;;;;;;7.89;43.12;99156.44;10467762;28;20111;-67
2021/03/12 17:44:05;;;;;;;2.08;1.40;;;;;;;8.05;42.47;99147.13;10468435;28;20048;-66
2021/03/12 17:49:07;;;;;;;2.65;1.00;;;;;;;8.04;42.72;99152.41;10468240;28;20049;-68
2021/03/12 17:54:09;;;;;;;3.22;1.15;;;;;;;7.95;42.85;99145.75;10450363;28;20082;-68
2021/03/12 17:59:10;;;;;;;2.80;1.10;;;;;;;7.90;43.38;99145.06;10467153;28;20075;-67
2021/03/12 18:04:11;;;;;;;3.08;0.98;;;;;;;7.88;43.57;99148.63;10449283;28;20045;-69
2021/03/12 18:09:13;;;;;;;2.75;1.30;;;;;;;7.55;45.07;99154.97;10451031;28;20522;-67
2021/03/12 18:14:14;;;;;;;3.65;1.40;;;;;;;7.47;44.67;99150.91;10467906;28;20506;-69
2021/03/12 18:19:15;;;;;;;2.53;1.35;;;;;;;7.26;45.16;99147.22;10465857;28;20048;-68
2021/03/12 18:24:16;;;;;;;4.15;1.55;;;;;;;7.04;46.06;99139.25;10466319;28;20036;-67
2021/03/12 18:29:18;;;;;;;2.58;1.20;;;;;;;6.95;45.69;99139.50;10467317;28;20037;-67
2021/03/12 18:34:19;;;;;;;3.85;1.50;;;;;;;6.78;46.45;99137.44;10449468;28;20137;-67
2021/03/12 18:39:21;;;;;;;4.72;2.10;;;;;;;6.80;46.42;99144.31;10449678;28;20056;-67
2021/03/12 18:44:22;;;;;;;4.20;2.70;;;;;;;6.78;46.98;99130.44;10467265;28;20047;-68
2021/03/12 18:49:24;;;;;;;5.40;2.47;;;;;;;6.80;47.08;99126.00;10448886;28;20132;-67
2021/03/12 18:54:25;;;;;;;4.25;2.63;;;;;;;6.80;47.20;99122.56;10465851;28;20483;-66
2021/03/12 18:59:28;;;;;;;5.47;3.20;;;;;;;6.70;47.70;99115.91;10467267;28;20494;-68
2021/03/12 19:04:29;;;;;;;4.35;2.15;;;;;;;6.79;47.81;99107.78;10448833;28;20127;-68
2021/03/12 19:09:32;;;;;;;6.95;3.63;;;;;;;6.73;48.46;99094.91;10450353;28;20064;-68
2021/03/12 19:14:35;;;;;;;5.28;3.08;;;;;;;6.58;48.99;99098.84;10469247;28;20040;-67
2021/03/12 19:19:36;;;;;;;2.83;1.45;;;;;;;6.49;49.51;99091.31;10449937;28;20052;-69
2021/03/12 19:24:37;;;;;;;3.65;1.60;;;;;;;6.36;50.65;99077.75;10450136;28;20049;-68
2021/03/12 19:29:40;;;;;;;4.53;1.95;;;;;;;6.50;50.16;99072.13;10449780;28;20086;-68
2021/03/12 19:34:41;;;;;;;5.15;2.58;;;;;;;6.57;50.67;99073.66;10446678;28;20466;-67
2021/03/12 19:39:43;;;;;;;3.28;1.98;;;;;;;6.42;50.87;99069.75;10463992;28;20067;-66
2021/03/12 19:44:44;;;;;;;5.43;2.40;;;;;;;6.48;51.12;99071.31;10465548;28;20499;-68
2021/03/12 19:49:45;;;;;;;3.08;1.60;;;;;;;6.46;50.90;99065.28;10447759;28;20079;-67
2021/03/12 19:54:46;;;;;;;5.90;1.40;;;;;;;6.51;51.05;99059.03;10466229;28;20403;-68
2021/03/12 19:59:48;;;;;;;2.63;1.10;;;;;;;6.58;50.78;99041.41;10476481;22;20048;-65
2021/03/12 20:04:50;;;;;;;6.05;1.50;;;;;;;6.47;50.94;99033.06;10458341;28;20431;-66
2021/03/12 20:09:52;;;;;;;4.70;1.42;;;;;;;6.58;50.81;99031.81;10457958;28;20071;-66
2021/03/12 20:14:54;;;;;;;2.72;1.02;;;;;;;6.65;50.30;99023.81;10458317;28;20041;-66
2021/03/12 20:19:56;;;;;;;4.78;1.02;;;;;;;6.66;50.39;99017.66;10457374;28;20044;-67
2021/03/12 20:24:58;;;;;;;3.25;1.35;;;;;;;6.91;49.56;99018.59;10457514;28;20521;-64
2021/03/12 20:30:00;;;;;;;4.13;1.42;;;;;;;6.80;50.23;99007.63;10457828;28;20041;-66
2021/03/12 20:35:01;;;;;;;3.45;1.23;;;;;;;7.01;49.36;98999.06;10456911;28;20067;-66
2021/03/12 20:40:05;;;;;;;3.67;1.00;;;;;;;6.80;50.13;98994.56;10456868;28;20045;-67
2021/03/12 20:45:09;;;;;;;4.07;1.20;;;;;;;7.01;49.09;99000.84;10456497;28;20045;-65
2021/03/12 20:50:11;;;;;;;6.57;1.40;;;;;;;7.08;48.78;98991.88;10456392;28;20128;-66
2021/03/12 20:55:14;;;;;;;4.43;0.85;;;;;;;7.06;48.95;98989.31;10457382;28;20033;-66
2021/03/12 21:00:19;;;;;;;5.45;1.23;;;;;;;7.07;48.79;98975.34;10455983;28;20128;-66
2021/03/12 21:05:21;;;;;;;4.65;0.95;;;;;;;7.21;48.26;98966.16;10456698;28;20072;-65
2021/03/12 21:10:24;;;;;;;2.85;1.00;;;;;;;7.15;48.84;98971.63;10456937;28;20388;-67
2021/03/12 21:15:25;;;;;;;5.40;1.42;;;;;;;7.26;47.95;98962.50;10464776;28;20444;-64
2021/03/12 21:20:27;;;;;;;4.28;1.08;;;;;;;7.14;48.18;98954.25;10447265;28;20453;-66
2021/03/12 21:25:39;;;;;;;4.03;0.77;;;;;;;7.27;47.97;98945.06;10464084;28;20116;-66
2021/03/12 21:30:42;;;;;;;3.78;1.23;;;;;;;7.15;48.23;98940.25;10446349;28;20055;-64
2021/03/12 21:35:44;;;;;;;4.28;1.13;;;;;;;7.24;48.07;98945.16;10463205;28;20043;-65
2021/03/12 21:40:45;;;;;;;4.10;1.40;;;;;;;7.12;48.48;98928.13;10463420;28;20037;-65
2021/03/12 21:45:46;;;;;;;2.70;1.02;;;;;;;7.13;48.47;98921.16;10464019;28;20126;-65
2021/03/12 21:50:48;;;;;;;4.45;0.95;;;;;;;7.17;48.31;98917.53;10445526;28;20114;-67
2021/03/12 21:55:49;;;;;;;4.20;1.15;;;;;;;6.99;48.72;98919.03;10463465;28;20041;-65
2021/03/12 22:00:54;;;;;;;3.90;1.08;;;;;;;7.25;48.19;98915.50;10462558;28;20048;-66
2021/03/12 22:05:56;;;;;;;3.53;1.05;;;;;;;7.23;48.18;98901.63;10462622;28;20041;-65
2021/03/12 22:10:57;;;;;;;4.13;1.13;;;;;;;7.16;48.26;98892.31;10462479;28;20379;-66
2021/03/12 22:15:58;;;;;;;3.35;0.93;;;;;;;7.31;47.81;98863.84;10462352;28;20037;-65
2021/03/12 22:21:00;;;;;;;2.83;0.80;;;;;;;7.48;47.59;98864.97;10461800;28;20123;-65
2021/03/12 22:26:02;;;;;;;3.42;0.90;;;;;;;7.45;47.85;98868.56;10460480;28;20466;-66
2021/03/12 22:31:18;;;;;;;4.10;0.90;;;;;;;7.59;47.87;98857.59;10461897;28;20044;-65
2021/03/12 22:36:19;;;;;;;3.13;0.85;;;;;;;7.60;47.67;98859.28;10461803;28;20094;-66
2021/03/12 22:41:20;;;;;;;5.63;0.73;;;;;;;7.63;47.56;98843.47;10461394;28;20124;-66
2021/03/12 22:46:22;;;;;;;2.97;1.00;;;;;;;7.76;47.50;98833.38;10461316;28;20041;-66
2021/03/12 22:51:23;;;;;;;2.38;0.60;;;;;;;7.75;47.61;98843.00;10460767;28;20049;-67
2021/03/12 22:56:25;;;;;;;4.35;1.00;;;;;;;7.79;47.82;98846.31;10460986;28;20552;-65
2021/03/12 23:01:38;;;;;;;2.70;0.88;;;;;;;7.94;47.03;98844.88;10444372;28;20041;-65
2021/03/12 23:06:40;;;;;;;3.83;0.98;;;;;;;7.95;47.68;98836.13;10460139;28;20041;-65
2021/03/12 23:11:41;;;;;;;3.05;0.93;;;;;;;7.93;47.31;98840.56;10460088;28;20044;-66
2021/03/12 23:16:43;;;;;;;3.50;0.82;;;;;;;7.99;47.26;98833.31;10459798;28;20061;-65
2021/03/12 23:21:45;;;;;;;3.25;0.80;;;;;;;8.01;47.42;98839.34;10459229;28;20045;-67
2021/03/12 23:26:49;;;;;;;3.65;0.52;;;;;;;8.01;47.86;98822.78;10459348;28;20044;-65
2021/03/12 23:32:02;;;;;;;4.13;0.77;;;;;;;8.11;47.82;98824.13;10458928;28;20091;-66
2021/03/12 23:37:04;;;;;;;2.03;0.80;;;;;;;8.24;47.67;98827.09;10458838;28;20140;-65
2021/03/12 23:42:05;;;;;;;6.13;0.80;;;;;;;8.16;48.33;98837.03;10458946;28;20106;-65
2021/03/12 23:47:07;;;;;;;2.13;0.70;;;;;;;8.18;48.36;98830.78;10459243;28;20409;-65
2021/03/12 23:52:09;;;;;;;3.38;0.95;;;;;;;8.14;48.93;98844.06;10458946;28;20084;-66
2021/03/12 23:57:10;;;;;;;2.15;0.77;;;;;;;8.23;48.82;98854.16;10458144;28;20045;-64
